Time;durP1;ratioP1;P1;durP2;ratioP2;P2;SDS_P1;SDS_P2;PMS_P1;PMS_P2;Temp;Humidity;BMP_temperature;BMP_pressure;BME280_temperature;BME280_humidity;BME280_pressure;Samples;Min_cycle;Max_cycle;Signal;HPM_P1;HPM_P2
2021/08/06 00:01:45;;;;;;;7.70;6.25;;;;;;;;;;5091788;28;20062;-47
2021/08/06 00:04:11;;;;;;;8.85;5.80;;;;;;;;;;5091885;28;20047;-47
2021/08/06 00:06:40;;;;;;;6.50;5.88;;;;;;;;;;5091733;28;20020;-47
2021/08/06 00:09:06;;;;;;;5.57;5.07;;;;;;;;;;5091501;28;20021;-47
2021/08/06 00:11:33;;;;;;;6.45;5.70;;;;;;;;;;5091852;28;20135;-49
2021/08/06 00:13:59;;;;;;;6.60;5.95;;;;;;;;;;5091831;28;20028;-49
2021/08/06 00:16:25;;;;;;;9.85;6.60;;;;;;;;;;5091664;28;20049;-46
2021/08/06 00:18:51;;;;;;;8.20;6.60;;;;;;;;;;5091596;28;20024;-45
2021/08/06 00:21:18;;;;;;;9.82;7.72;;;;;;;;;;5091550;28;20414;-47
2021/08/06 00:23:44;;;;;;;11.70;8.25;;;;;;;;;;5091582;28;20028;-47
2021/08/06 00:26:11;;;;;;;12.27;8.90;;;;;;;;;;5091458;28;20028;-50
2021/08/06 00:28:37;;;;;;;12.93;8.57;;;;;;;;;;5091562;28;20051;-46
2021/08/06 00:31:03;;;;;;;9.93;8.25;;;;;;;;;;5091324;28;20031;-46
2021/08/06 00:33:29;;;;;;;13.70;8.48;;;;;;;;;;5091343;28;20030;-47
2021/08/06 00:35:55;;;;;;;9.60;8.38;;;;;;;;;;5091314;28;20020;-46
2021/08/06 00:38:21;;;;;;;13.93;9.52;;;;;;;;;;5091175;28;20382;-47
2021/08/06 00:40:47;;;;;;;15.02;9.20;;;;;;;;;;5091193;28;20024;-46
2021/08/06 00:43:13;;;;;;;14.35;8.73;;;;;;;;;;5091266;28;20097;-46
2021/08/06 00:45:39;;;;;;;16.83;8.70;;;;;;;;;;5091238;28;20050;-47
2021/08/06 00:48:06;;;;;;;18.33;10.23;;;;;;;;;;5091233;28;20024;-49
2021/08/06 00:50:32;;;;;;;17.20;8.75;;;;;;;;;;5094793;28;20459;-46
2021/08/06 00:52:59;;;;;;;19.88;9.90;;;;;;;;;;5095116;28;20368;-46
2021/08/06 00:55:25;;;;;;;15.95;8.98;;;;;;;;;;5094943;28;20525;-46
2021/08/06 00:57:51;;;;;;;17.40;8.90;;;;;;;;;;5094805;28;20028;-46
2021/08/06 01:00:17;;;;;;;15.35;9.18;;;;;;;;;;5076536;28;20153;-47
2021/08/06 01:02:47;;;;;;;12.30;8.32;;;;;;;;;;5094721;28;20025;-47
2021/08/06 01:05:15;;;;;;;13.00;8.25;;;;;;;;;;5094786;28;20054;-47
2021/08/06 01:07:50;;;;;;;13.05;8.77;;;;;;;;;;5094566;28;20490;-50
2021/08/06 01:10:18;;;;;;;11.32;7.88;;;;;;;;;;5094641;28;20085;-46
2021/08/06 01:12:54;;;;;;;10.20;7.43;;;;;;;;;;5094513;28;20499;-47
2021/08/06 01:15:20;;;;;;;10.73;7.82;;;;;;;;;;5094316;28;20483;-48
2021/08/06 01:17:47;;;;;;;8.73;6.95;;;;;;;;;;5094320;28;20052;-49
2021/08/06 01:20:28;;;;;;;10.68;8.02;;;;;;;;;;5094177;28;20028;-47
2021/08/06 01:23:09;;;;;;;9.45;7.10;;;;;;;;;;5094436;28;20066;-46
2021/08/06 01:25:51;;;;;;;9.10;7.40;;;;;;;;;;5094108;28;20020;-47
2021/08/06 01:28:21;;;;;;;8.95;7.65;;;;;;;;;;5094356;28;20130;-46
2021/08/06 01:30:48;;;;;;;10.20;7.57;;;;;;;;;;5075982;28;20082;-51
2021/08/06 01:33:15;;;;;;;9.10;8.20;;;;;;;;;;5094271;28;20119;-49
2021/08/06 01:35:41;;;;;;;10.43;7.40;;;;;;;;;;5094095;28;20463;-49
2021/08/06 01:38:07;;;;;;;8.25;7.35;;;;;;;;;;5093964;28;20020;-47
2021/08/06 01:40:40;;;;;;;12.60;8.40;;;;;;;;;;5093914;28;20028;-47
2021/08/06 01:43:12;;;;;;;9.10;7.88;;;;;;;;;;5093904;28;20413;-47
2021/08/06 01:45:40;;;;;;;9.88;8.52;;;;;;;;;;5094000;28;20100;-46
2021/08/06 01:48:07;;;;;;;12.65;9.27;;;;;;;;;;5075756;28;20532;-46
2021/08/06 01:50:37;;;;;;;12.38;9.95;;;;;;;;;;5093988;28;20056;-46
2021/08/06 01:53:04;;;;;;;10.35;9.25;;;;;;;;;;5093741;28;20024;-47
2021/08/06 01:55:42;;;;;;;13.00;8.90;;;;;;;;;;5093855;28;20051;-48
2021/08/06 01:58:09;;;;;;;19.92;9.57;;;;;;;;;;5093680;28;20058;-46
2021/08/06 02:00:36;;;;;;;12.70;8.85;;;;;;;;;;5092918;28;20368;-47
2021/08/06 02:03:02;;;;;;;11.27;8.90;;;;;;;;;;5093535;28;20016;-48
2021/08/06 02:05:29;;;;;;;12.93;10.15;;;;;;;;;;5093432;28;20455;-49
2021/08/06 02:07:55;;;;;;;13.63;9.52;;;;;;;;;;5093330;28;20513;-47
2021/08/06 02:10:21;;;;;;;14.32;9.88;;;;;;;;;;5093471;28;20020;-48
2021/08/06 02:12:47;;;;;;;8.98;7.75;;;;;;;;;;5093365;28;20032;-51
2021/08/06 02:15:14;;;;;;;13.23;8.98;;;;;;;;;;5093194;28;20110;-50
2021/08/06 02:17:41;;;;;;;13.52;9.93;;;;;;;;;;5093118;28;20044;-48
2021/08/06 02:20:08;;;;;;;18.45;9.00;;;;;;;;;;5093149;28;20036;-50
2021/08/06 02:22:34;;;;;;;12.35;8.88;;;;;;;;;;5093177;28;20035;-49
2021/08/06 02:25:01;;;;;;;18.42;10.60;;;;;;;;;;5093167;28;20383;-50
2021/08/06 02:27:27;;;;;;;12.85;9.15;;;;;;;;;;5093079;28;20020;-51
2021/08/06 02:29:55;;;;;;;16.40;9.10;;;;;;;;;;5074942;28;20024;-49
2021/08/06 02:32:21;;;;;;;12.90;8.82;;;;;;;;;;5092993;28;20388;-50
2021/08/06 02:34:48;;;;;;;11.07;8.98;;;;;;;;;;5092997;28;20035;-46
2021/08/06 02:37:14;;;;;;;10.75;8.77;;;;;;;;;;5092854;28;20035;-46
2021/08/06 02:39:40;;;;;;;9.32;8.30;;;;;;;;;;5074802;28;20023;-46
2021/08/06 02:42:06;;;;;;;12.50;10.00;;;;;;;;;;5074789;28;20467;-49
2021/08/06 02:44:36;;;;;;;10.15;8.63;;;;;;;;;;5092846;28;20391;-46
2021/08/06 02:47:03;;;;;;;10.73;8.55;;;;;;;;;;5092522;28;20073;-48
2021/08/06 02:49:31;;;;;;;9.30;8.18;;;;;;;;;;5092681;28;20058;-49
2021/08/06 02:51:58;;;;;;;12.43;8.20;;;;;;;;;;5092732;28;20085;-47
2021/08/06 02:54:24;;;;;;;9.32;7.97;;;;;;;;;;5092452;28;20036;-47
2021/08/06 02:56:50;;;;;;;10.02;8.32;;;;;;;;;;5092512;28;20127;-46
2021/08/06 02:59:16;;;;;;;13.48;9.48;;;;;;;;;;5092323;28;20534;-46
2021/08/06 03:01:42;;;;;;;9.73;8.02;;;;;;;;;;5092477;28;20031;-46
2021/08/06 03:04:08;;;;;;;9.55;8.65;;;;;;;;;;5092349;28;20024;-47
2021/08/06 03:06:34;;;;;;;11.55;10.18;;;;;;;;;;5092409;28;20387;-47
2021/08/06 03:09:00;;;;;;;15.05;11.30;;;;;;;;;;5092444;28;20024;-47
2021/08/06 03:11:26;;;;;;;14.25;12.10;;;;;;;;;;5074257;28;20031;-47
2021/08/06 03:13:52;;;;;;;15.27;12.57;;;;;;;;;;5091884;28;20860;-47
2021/08/06 03:16:18;;;;;;;15.23;12.13;;;;;;;;;;5092278;28;20437;-48
2021/08/06 03:18:44;;;;;;;16.58;10.77;;;;;;;;;;5092193;28;20039;-47
2021/08/06 03:21:10;;;;;;;15.73;11.48;;;;;;;;;;5092081;28;20020;-47
2021/08/06 03:23:36;;;;;;;18.35;10.80;;;;;;;;;;5092094;28;20028;-46
2021/08/06 03:26:03;;;;;;;20.00;12.18;;;;;;;;;;5092148;28;20023;-46
2021/08/06 03:28:29;;;;;;;18.13;11.80;;;;;;;;;;5091954;28;20020;-51
2021/08/06 03:30:55;;;;;;;14.48;10.52;;;;;;;;;;5091959;28;20400;-51
2021/08/06 03:33:21;;;;;;;15.02;10.95;;;;;;;;;;5092104;28;20031;-51
2021/08/06 03:35:47;;;;;;;13.55;9.77;;;;;;;;;;5091942;28;20027;-48
2021/08/06 03:38:17;;;;;;;17.60;11.20;;;;;;;;;;5073574;28;20024;-48
2021/08/06 03:40:44;;;;;;;15.70;10.93;;;;;;;;;;5073675;28;20024;-51
2021/08/06 03:43:10;;;;;;;12.70;10.60;;;;;;;;;;5091767;28;20052;-47
2021/08/06 03:45:36;;;;;;;18.20;10.48;;;;;;;;;;5091752;28;20028;-47
2021/08/06 03:48:02;;;;;;;10.65;9.48;;;;;;;;;;5091788;28;20535;-50
2021/08/06 03:50:28;;;;;;;11.63;9.90;;;;;;;;;;5091784;28;20034;-50
2021/08/06 03:52:54;;;;;;;9.48;8.50;;;;;;;;;;5091690;28;20028;-50
2021/08/06 03:55:20;;;;;;;10.98;8.70;;;;;;;;;;5091659;28;20394;-49
2021/08/06 03:57:56;;;;;;;10.50;8.93;;;;;;;;;;5091685;28;20426;-51
2021/08/06 04:00:23;;;;;;;11.63;8.30;;;;;;;;;;5073607;28;20032;-51
2021/08/06 04:02:50;;;;;;;11.10;7.93;;;;;;;;;;5073937;28;20043;-52
2021/08/06 04:05:16;;;;;;;11.15;8.73;;;;;;;;;;5091451;28;20020;-51
2021/08/06 04:07:42;;;;;;;10.00;8.43;;;;;;;;;;5091636;28;20047;-48
2021/08/06 04:10:09;;;;;;;10.38;9.05;;;;;;;;;;5091503;28;20031;-46
2021/08/06 04:12:35;;;;;;;9.52;8.32;;;;;;;;;;5091135;28;20069;-48
2021/08/06 04:15:01;;;;;;;9.05;7.68;;;;;;;;;;5091697;28;20024;-47
2021/08/06 04:17:27;;;;;;;14.23;7.90;;;;;;;;;;5091316;28;20051;-49
2021/08/06 04:19:53;;;;;;;11.30;8.82;;;;;;;;;;5091394;28;20036;-49
2021/08/06 04:22:19;;;;;;;10.85;9.20;;;;;;;;;;5091369;28;20031;-47
2021/08/06 04:24:45;;;;;;;14.55;8.85;;;;;;;;;;5093763;28;20020;-48
2021/08/06 04:27:11;;;;;;;9.32;8.32;;;;;;;;;;5095326;28;20433;-48
2021/08/06 04:29:37;;;;;;;10.85;8.45;;;;;;;;;;5095212;28;20024;-49
2021/08/06 04:32:04;;;;;;;9.60;7.57;;;;;;;;;;5095281;28;20486;-46
2021/08/06 04:34:30;;;;;;;9.05;8.10;;;;;;;;;;5095171;28;20032;-47
2021/08/06 04:36:56;;;;;;;10.25;7.65;;;;;;;;;;5095111;28;20032;-48
2021/08/06 04:39:22;;;;;;;11.48;9.63;;;;;;;;;;5094933;28;20043;-46
2021/08/06 04:41:49;;;;;;;9.98;8.00;;;;;;;;;;5076938;28;20016;-49
2021/08/06 04:44:15;;;;;;;12.30;7.90;;;;;;;;;;5095251;28;20012;-50
2021/08/06 04:46:42;;;;;;;10.55;8.55;;;;;;;;;;5095101;28;20013;-48
2021/08/06 04:49:08;;;;;;;8.43;7.63;;;;;;;;;;5095286;28;20103;-47
2021/08/06 04:51:34;;;;;;;9.32;7.75;;;;;;;;;;5094964;28;20168;-48
2021/08/06 04:54:00;;;;;;;9.55;8.18;;;;;;;;;;5094863;28;20486;-50
2021/08/06 04:56:26;;;;;;;8.40;7.57;;;;;;;;;;5094326;28;20558;-46
2021/08/06 04:58:52;;;;;;;8.63;7.82;;;;;;;;;;5094793;28;20027;-47
2021/08/06 05:01:18;;;;;;;10.02;8.85;;;;;;;;;;5093317;28;20024;-48
2021/08/06 05:03:44;;;;;;;9.30;8.40;;;;;;;;;;5092789;28;20024;-50
2021/08/06 05:06:10;;;;;;;9.65;8.40;;;;;;;;;;5088729;28;20016;-50
2021/08/06 05:08:38;;;;;;;9.32;7.72;;;;;;;;;;5055686;28;20043;-51
2021/08/06 05:11:05;;;;;;;12.63;8.45;;;;;;;;;;5094479;28;20035;-46
2021/08/06 05:13:31;;;;;;;12.75;8.85;;;;;;;;;;5093670;28;20032;-49
2021/08/06 05:15:57;;;;;;;14.07;8.38;;;;;;;;;;5094211;28;20035;-48
2021/08/06 05:18:23;;;;;;;11.93;8.98;;;;;;;;;;5076195;28;20407;-50
2021/08/06 05:20:50;;;;;;;10.88;8.38;;;;;;;;;;5092999;28;20467;-49
2021/08/06 05:23:16;;;;;;;9.90;8.70;;;;;;;;;;5075967;28;20031;-47
2021/08/06 05:25:42;;;;;;;12.75;8.40;;;;;;;;;;5091117;28;20515;-52
2021/08/06 05:28:08;;;;;;;10.30;9.18;;;;;;;;;;5066126;28;20020;-52
2021/08/06 05:30:35;;;;;;;9.77;8.68;;;;;;;;;;5086163;28;21296;-47
2021/08/06 05:33:03;;;;;;;11.13;8.65;;;;;;;;;;5066283;28;20025;-50
2021/08/06 05:35:29;;;;;;;9.55;8.50;;;;;;;;;;5080190;28;20448;-46
2021/08/06 05:37:55;;;;;;;11.32;9.45;;;;;;;;;;5083697;28;20024;-47
2021/08/06 05:40:22;;;;;;;16.67;12.20;;;;;;;;;;5074448;28;20383;-45
2021/08/06 05:42:48;;;;;;;15.50;13.75;;;;;;;;;;5079772;28;20027;-47
2021/08/06 05:45:15;;;;;;;13.60;11.55;;;;;;;;;;5082488;28;20198;-46
2021/08/06 05:47:59;;;;;;;19.30;16.23;;;;;;;;;;5055624;28;20024;-47
2021/08/06 05:50:25;;;;;;;;;;;;;;;;;;5056037;28;20073;-47
2021/08/06 05:52:51;;;;;;;14.77;11.10;;;;;;;;;;5073494;28;20351;-47
2021/08/06 05:55:18;;;;;;;15.63;11.05;;;;;;;;;;5073501;28;20109;-50
2021/08/06 05:57:44;;;;;;;12.98;11.13;;;;;;;;;;5055699;28;20033;-49
2021/08/06 06:00:12;;;;;;;12.70;10.85;;;;;;;;;;5077561;28;20098;-46
2021/08/06 06:02:38;;;;;;;15.68;10.68;;;;;;;;;;5093442;28;20483;-47
2021/08/06 06:05:05;;;;;;;13.20;10.60;;;;;;;;;;5093492;28;20067;-47
2021/08/06 06:07:31;;;;;;;15.65;12.52;;;;;;;;;;5093359;28;20543;-47
2021/08/06 06:09:57;;;;;;;13.30;11.75;;;;;;;;;;5093491;28;20076;-48
2021/08/06 06:12:23;;;;;;;12.60;9.45;;;;;;;;;;5093578;28;20126;-49
2021/08/06 06:14:49;;;;;;;12.15;10.70;;;;;;;;;;5074526;28;20028;-49
2021/08/06 06:17:15;;;;;;;12.73;8.95;;;;;;;;;;5074816;28;20082;-51
2021/08/06 06:19:44;;;;;;;10.15;8.85;;;;;;;;;;5075155;28;20134;-46
2021/08/06 06:22:10;;;;;;;9.65;8.45;;;;;;;;;;5093385;28;20135;-50
2021/08/06 06:24:37;;;;;;;8.15;7.35;;;;;;;;;;5093154;28;20091;-51
2021/08/06 06:27:03;;;;;;;8.93;7.65;;;;;;;;;;5092961;28;20426;-50
2021/08/06 06:29:29;;;;;;;9.02;8.02;;;;;;;;;;5093007;28;20028;-47
2021/08/06 06:31:55;;;;;;;8.35;7.45;;;;;;;;;;5092068;28;20103;-47
2021/08/06 06:34:21;;;;;;;7.85;6.97;;;;;;;;;;5092904;28;20102;-48
2021/08/06 06:36:47;;;;;;;8.27;7.35;;;;;;;;;;5086661;28;20056;-48
2021/08/06 06:39:13;;;;;;;8.65;7.75;;;;;;;;;;5092682;28;20020;-47
2021/08/06 06:41:39;;;;;;;8.55;7.78;;;;;;;;;;5091993;28;20046;-46
2021/08/06 06:44:05;;;;;;;9.38;8.27;;;;;;;;;;5092784;28;20020;-47
2021/08/06 06:46:31;;;;;;;9.70;7.32;;;;;;;;;;5092376;28;20052;-47
2021/08/06 06:48:57;;;;;;;11.32;7.80;;;;;;;;;;5091821;28;20051;-49
2021/08/06 06:51:23;;;;;;;12.57;8.85;;;;;;;;;;5074437;28;20520;-46
2021/08/06 06:53:49;;;;;;;18.30;10.77;;;;;;;;;;5092495;28;20051;-49
2021/08/06 06:56:15;;;;;;;24.27;11.75;;;;;;;;;;5085730;28;20024;-48
2021/08/06 06:58:41;;;;;;;19.88;11.30;;;;;;;;;;5080589;28;20012;-48
2021/08/06 07:01:07;;;;;;;14.73;9.98;;;;;;;;;;5078988;28;20017;-50
2021/08/06 07:03:34;;;;;;;16.13;11.82;;;;;;;;;;5079070;28;20149;-50
2021/08/06 07:06:00;;;;;;;11.18;9.65;;;;;;;;;;5080609;28;20016;-48
2021/08/06 07:08:26;;;;;;;14.68;11.25;;;;;;;;;;5079087;28;20509;-49
2021/08/06 07:10:52;;;;;;;13.65;9.75;;;;;;;;;;5089941;28;20020;-47
2021/08/06 07:13:18;;;;;;;11.68;10.10;;;;;;;;;;5080688;28;20028;-50
2021/08/06 07:15:44;;;;;;;15.35;10.85;;;;;;;;;;5081667;28;20036;-50
2021/08/06 07:18:11;;;;;;;11.43;9.30;;;;;;;;;;5079681;28;20057;-48
2021/08/06 07:20:37;;;;;;;20.00;10.15;;;;;;;;;;5081388;28;20036;-50
2021/08/06 07:23:04;;;;;;;15.00;8.90;;;;;;;;;;5081549;28;20088;-47
2021/08/06 07:25:30;;;;;;;13.95;8.13;;;;;;;;;;5079352;28;20031;-49
2021/08/06 07:27:56;;;;;;;14.27;8.95;;;;;;;;;;5080797;28;20012;-48
2021/08/06 07:30:22;;;;;;;8.98;6.57;;;;;;;;;;5080848;28;20021;-50
2021/08/06 07:32:48;;;;;;;8.07;6.93;;;;;;;;;;5079208;28;20024;-50
2021/08/06 07:35:16;;;;;;;7.95;7.15;;;;;;;;;;5080915;28;20039;-50
2021/08/06 07:37:42;;;;;;;10.15;6.13;;;;;;;;;;5084128;28;20020;-50
2021/08/06 07:40:09;;;;;;;7.43;6.35;;;;;;;;;;5091750;28;20024;-52
2021/08/06 07:42:35;;;;;;;7.35;5.93;;;;;;;;;;5092078;28;20089;-49
2021/08/06 07:45:01;;;;;;;6.22;5.63;;;;;;;;;;5091765;28;20482;-49
2021/08/06 07:47:27;;;;;;;6.25;5.65;;;;;;;;;;5091739;28;20395;-47
2021/08/06 07:49:53;;;;;;;5.82;5.22;;;;;;;;;;5091739;28;20024;-49
2021/08/06 07:52:19;;;;;;;6.18;5.57;;;;;;;;;;5091600;28;20024;-47
2021/08/06 07:54:45;;;;;;;5.65;5.10;;;;;;;;;;5090983;28;20538;-49
2021/08/06 07:57:12;;;;;;;5.70;4.93;;;;;;;;;;5082686;28;20095;-50
2021/08/06 07:59:38;;;;;;;9.50;5.90;;;;;;;;;;5082325;28;20027;-47
2021/08/06 08:02:05;;;;;;;6.93;6.18;;;;;;;;;;5065622;28;20111;-50
2021/08/06 08:04:31;;;;;;;9.77;6.40;;;;;;;;;;5083338;28;20017;-48
2021/08/06 08:06:57;;;;;;;8.60;6.43;;;;;;;;;;5084280;28;20020;-47
2021/08/06 08:09:23;;;;;;;9.38;6.15;;;;;;;;;;5085018;28;20074;-49
2021/08/06 08:11:50;;;;;;;10.90;5.75;;;;;;;;;;5080272;28;20024;-50
2021/08/06 08:14:16;;;;;;;8.50;5.25;;;;;;;;;;5077619;28;20387;-45
2021/08/06 08:16:42;;;;;;;6.35;4.57;;;;;;;;;;5075171;28;20033;-45
2021/08/06 08:19:08;;;;;;;5.53;4.50;;;;;;;;;;5075250;28;20025;-48
2021/08/06 08:21:35;;;;;;;6.18;4.63;;;;;;;;;;5075345;28;20036;-48
2021/08/06 08:24:01;;;;;;;4.82;4.22;;;;;;;;;;5075195;28;20024;-49
2021/08/06 08:26:27;;;;;;;8.75;4.38;;;;;;;;;;5075168;28;20029;-47
2021/08/06 08:28:53;;;;;;;4.45;3.90;;;;;;;;;;5075125;28;20032;-46
2021/08/06 08:31:20;;;;;;;5.45;4.10;;;;;;;;;;5075254;28;20452;-47
2021/08/06 08:33:46;;;;;;;7.68;4.10;;;;;;;;;;5075060;28;20773;-46
2021/08/06 08:36:12;;;;;;;4.32;3.92;;;;;;;;;;5074857;28;20020;-47
2021/08/06 08:38:58;;;;;;;5.72;3.88;;;;;;;;;;5074695;28;20020;-47
2021/08/06 08:41:24;;;;;;;4.50;4.10;;;;;;;;;;5074600;28;20074;-49
2021/08/06 08:43:51;;;;;;;5.60;3.83;;;;;;;;;;5074642;28;20047;-46
2021/08/06 08:46:18;;;;;;;5.18;4.10;;;;;;;;;;5074675;28;20072;-46
2021/08/06 08:48:45;;;;;;;4.65;3.65;;;;;;;;;;5074885;28;20031;-47
2021/08/06 08:51:12;;;;;;;4.35;3.53;;;;;;;;;;5074437;28;20037;-45
2021/08/06 08:53:39;;;;;;;3.85;3.45;;;;;;;;;;5074530;28;20035;-47
2021/08/06 08:56:05;;;;;;;6.03;3.80;;;;;;;;;;5074332;28;20479;-47
2021/08/06 08:58:31;;;;;;;4.93;3.28;;;;;;;;;;5081920;28;20028;-48
2021/08/06 09:00:57;;;;;;;3.70;3.40;;;;;;;;;;5076256;28;20021;-48
2021/08/06 09:03:45;;;;;;;4.10;3.33;;;;;;;;;;5076356;28;20417;-47
2021/08/06 09:06:11;;;;;;;3.40;3.10;;;;;;;;;;5094386;28;20081;-45
2021/08/06 09:08:38;;;;;;;4.88;3.40;;;;;;;;;;5094496;28;20021;-45
2021/08/06 09:11:24;;;;;;;3.88;2.78;;;;;;;;;;5094580;28;20035;-47
2021/08/06 09:13:50;;;;;;;7.75;3.50;;;;;;;;;;5094419;28;20461;-47
2021/08/06 09:16:16;;;;;;;4.90;3.70;;;;;;;;;;5094450;28;20028;-45
2021/08/06 09:18:43;;;;;;;3.10;2.90;;;;;;;;;;5094443;28;20039;-49
2021/08/06 09:21:15;;;;;;;3.47;2.95;;;;;;;;;;5094254;28;20114;-49
2021/08/06 09:23:45;;;;;;;2.97;2.63;;;;;;;;;;5094354;28;20050;-46
2021/08/06 09:26:27;;;;;;;6.28;2.65;;;;;;;;;;5094096;28;20475;-46
2021/08/06 09:29:01;;;;;;;2.90;2.58;;;;;;;;;;5075939;28;20114;-47
2021/08/06 09:31:27;;;;;;;4.13;3.00;;;;;;;;;;5076196;28;20048;-47
2021/08/06 09:34:13;;;;;;;4.63;2.90;;;;;;;;;;5093484;28;20028;-46
2021/08/06 09:36:51;;;;;;;4.60;2.90;;;;;;;;;;5093911;28;20028;-47
2021/08/06 09:39:18;;;;;;;4.90;2.80;;;;;;;;;;5093871;28;20055;-50
2021/08/06 09:41:46;;;;;;;6.22;2.80;;;;;;;;;;5093469;28;20024;-49
2021/08/06 09:44:16;;;;;;;6.05;3.28;;;;;;;;;;5082772;28;20020;-47
2021/08/06 09:46:43;;;;;;;7.15;3.00;;;;;;;;;;5083316;28;20020;-46
2021/08/06 09:49:09;;;;;;;5.43;2.67;;;;;;;;;;5081615;28;20494;-48
2021/08/06 09:51:42;;;;;;;5.85;3.13;;;;;;;;;;5082152;28;20038;-47
2021/08/06 09:54:22;;;;;;;7.35;3.00;;;;;;;;;;5081397;28;20020;-46
2021/08/06 09:56:49;;;;;;;5.22;3.10;;;;;;;;;;5083224;28;20110;-46
2021/08/06 09:59:28;;;;;;;7.30;3.28;;;;;;;;;;5081381;28;20025;-48
2021/08/06 10:02:10;;;;;;;4.95;3.53;;;;;;;;;;5081424;28;20024;-46
2021/08/06 10:04:36;;;;;;;5.38;3.38;;;;;;;;;;5081337;28;20078;-46
2021/08/06 10:07:02;;;;;;;3.58;2.83;;;;;;;;;;5081632;28;20475;-49
2021/08/06 10:09:28;;;;;;;4.57;3.67;;;;;;;;;;5082822;28;20039;-47
2021/08/06 10:11:54;;;;;;;7.10;4.25;;;;;;;;;;5081133;28;20074;-48
2021/08/06 10:14:21;;;;;;;6.40;3.42;;;;;;;;;;5081703;28;20490;-46
2021/08/06 10:16:47;;;;;;;4.70;3.10;;;;;;;;;;5082652;28;20048;-46
2021/08/06 10:19:16;;;;;;;5.93;3.20;;;;;;;;;;5080831;28;20058;-47
2021/08/06 10:21:42;;;;;;;4.88;3.53;;;;;;;;;;5080882;28;20048;-46
2021/08/06 10:24:09;;;;;;;5.65;3.28;;;;;;;;;;5082522;28;20054;-47
2021/08/06 10:26:35;;;;;;;6.28;3.42;;;;;;;;;;5080938;28;20417;-47
2021/08/06 10:29:01;;;;;;;3.78;2.88;;;;;;;;;;5089885;28;20052;-50
2021/08/06 10:31:27;;;;;;;3.10;2.80;;;;;;;;;;5092295;28;20024;-49
2021/08/06 10:34:06;;;;;;;3.30;3.00;;;;;;;;;;5092771;28;20054;-47
2021/08/06 10:36:39;;;;;;;3.22;2.80;;;;;;;;;;5092789;28;20027;-47
2021/08/06 10:39:06;;;;;;;4.45;2.92;;;;;;;;;;5092264;28;20020;-51
2021/08/06 10:41:49;;;;;;;3.78;3.10;;;;;;;;;;5073441;28;20029;-48
2021/08/06 10:44:15;;;;;;;3.90;2.80;;;;;;;;;;5079624;28;20024;-49
2021/08/06 10:46:51;;;;;;;3.15;2.90;;;;;;;;;;5080070;28;20024;-50
2021/08/06 10:49:17;;;;;;;5.20;3.67;;;;;;;;;;5080048;28;20092;-48
2021/08/06 10:51:43;;;;;;;3.95;2.70;;;;;;;;;;5080107;28;20012;-47
2021/08/06 10:54:09;;;;;;;3.72;2.88;;;;;;;;;;5081030;28;20024;-49
2021/08/06 10:56:37;;;;;;;4.93;2.85;;;;;;;;;;5081613;28;20020;-49
2021/08/06 10:59:10;;;;;;;3.42;2.78;;;;;;;;;;5079365;28;20017;-47
2021/08/06 11:01:41;;;;;;;4.38;2.72;;;;;;;;;;5072197;28;20430;-46
2021/08/06 11:04:16;;;;;;;4.15;3.20;;;;;;;;;;5072075;28;20365;-47
2021/08/06 11:06:46;;;;;;;3.40;3.03;;;;;;;;;;5081152;28;20095;-49
2021/08/06 11:09:32;;;;;;;4.20;3.80;;;;;;;;;;5061405;28;20383;-47
2021/08/06 11:11:59;;;;;;;5.25;4.47;;;;;;;;;;5080469;28;20376;-47
2021/08/06 11:14:31;;;;;;;5.57;4.20;;;;;;;;;;5080194;28;20020;-48
2021/08/06 11:17:03;;;;;;;4.30;3.75;;;;;;;;;;5080141;28;20048;-45
2021/08/06 11:19:34;;;;;;;4.65;4.15;;;;;;;;;;5079420;28;20376;-47
2021/08/06 11:22:01;;;;;;;4.47;4.07;;;;;;;;;;5080549;28;20228;-49
2021/08/06 11:24:27;;;;;;;4.20;3.90;;;;;;;;;;5081371;28;20099;-45
2021/08/06 11:26:53;;;;;;;5.03;4.38;;;;;;;;;;5084778;28;20031;-46
2021/08/06 11:29:20;;;;;;;4.30;3.63;;;;;;;;;;5091878;28;20100;-46
2021/08/06 11:31:58;;;;;;;4.78;4.38;;;;;;;;;;5091763;28;20534;-46
2021/08/06 11:34:24;;;;;;;4.90;4.50;;;;;;;;;;5090912;28;20024;-48
2021/08/06 11:37:00;;;;;;;5.45;4.95;;;;;;;;;;5091865;28;20479;-48
2021/08/06 11:39:27;;;;;;;5.55;4.45;;;;;;;;;;5082162;28;20429;-49
2021/08/06 11:41:55;;;;;;;7.25;5.25;;;;;;;;;;5079532;28;20021;-47
2021/08/06 11:44:21;;;;;;;5.80;5.20;;;;;;;;;;5079935;28;20012;-47
2021/08/06 11:46:48;;;;;;;6.05;5.53;;;;;;;;;;5081064;28;20110;-48
2021/08/06 11:49:15;;;;;;;6.07;5.55;;;;;;;;;;5079597;28;20640;-47
2021/08/06 11:51:54;;;;;;;5.95;5.35;;;;;;;;;;5080065;28;20023;-49
2021/08/06 11:54:24;;;;;;;5.50;5.00;;;;;;;;;;5080648;28;20056;-50
2021/08/06 11:56:59;;;;;;;5.43;4.97;;;;;;;;;;5078896;28;20119;-47
2021/08/06 11:59:26;;;;;;;6.22;5.63;;;;;;;;;;5079022;28;20054;-49
2021/08/06 12:02:11;;;;;;;6.18;5.57;;;;;;;;;;5081541;28;20017;-50
2021/08/06 12:04:37;;;;;;;6.28;5.68;;;;;;;;;;5079784;28;20396;-49
2021/08/06 12:07:04;;;;;;;6.70;5.55;;;;;;;;;;5079749;28;20012;-47
2021/08/06 12:09:30;;;;;;;8.20;6.68;;;;;;;;;;5058100;28;20383;-46
2021/08/06 12:11:56;;;;;;;7.60;6.57;;;;;;;;;;5071292;28;20047;-50
2021/08/06 12:14:27;;;;;;;7.47;6.55;;;;;;;;;;5071257;28;20031;-49
2021/08/06 12:16:53;;;;;;;8.18;5.80;;;;;;;;;;5084662;28;20040;-54
2021/08/06 12:19:20;;;;;;;8.50;6.93;;;;;;;;;;5080660;28;20020;-46
2021/08/06 12:21:46;;;;;;;9.05;5.93;;;;;;;;;;5080219;28;20114;-47
2021/08/06 12:24:17;;;;;;;6.10;5.13;;;;;;;;;;5078581;28;20383;-47
2021/08/06 12:26:45;;;;;;;10.93;6.40;;;;;;;;;;5079892;28;20107;-46
2021/08/06 12:29:14;;;;;;;11.05;5.80;;;;;;;;;;5080843;28;20028;-49
2021/08/06 12:31:52;;;;;;;7.75;6.00;;;;;;;;;;5079071;28;20025;-47
2021/08/06 12:34:21;;;;;;;14.70;6.22;;;;;;;;;;5079059;28;20066;-47
2021/08/06 12:36:53;;;;;;;10.05;5.82;;;;;;;;;;5079402;28;20017;-46
2021/08/06 12:39:19;;;;;;;15.60;4.65;;;;;;;;;;5078859;28;20016;-45
2021/08/06 12:41:46;;;;;;;7.93;5.28;;;;;;;;;;5079799;28;20105;-45
2021/08/06 12:44:19;;;;;;;12.52;6.53;;;;;;;;;;5080840;28;20469;-47
2021/08/06 12:47:03;;;;;;;9.57;6.68;;;;;;;;;;5083735;28;20056;-47
2021/08/06 12:49:40;;;;;;;13.15;7.53;;;;;;;;;;5084218;28;20025;-46
2021/08/06 12:52:07;;;;;;;16.55;8.43;;;;;;;;;;5083642;28;20047;-48
2021/08/06 12:54:59;;;;;;;8.25;6.97;;;;;;;;;;5082173;28;20024;-46
2021/08/06 12:57:42;;;;;;;9.05;5.38;;;;;;;;;;5058428;28;20450;-46
2021/08/06 13:00:16;;;;;;;5.82;4.53;;;;;;;;;;5083733;28;20124;-46
2021/08/06 13:02:42;;;;;;;6.13;4.72;;;;;;;;;;5082863;28;20020;-45
2021/08/06 13:05:12;;;;;;;9.40;5.70;;;;;;;;;;5082607;28;20039;-48
2021/08/06 13:07:39;;;;;;;11.00;6.35;;;;;;;;;;5082347;28;20425;-46
2021/08/06 13:10:23;;;;;;;13.07;7.97;;;;;;;;;;5083520;28;20028;-47
2021/08/06 13:12:49;;;;;;;;;;;;;;;;;;5084194;28;20543;-47
2021/08/06 13:15:16;;;;;;;15.77;9.38;;;;;;;;;;5081842;28;19991;-47
2021/08/06 13:17:42;;;;;;;8.57;6.72;;;;;;;;;;5083129;28;20048;-48
2021/08/06 13:20:08;;;;;;;12.50;8.88;;;;;;;;;;5083299;28;20024;-48
2021/08/06 13:22:34;;;;;;;13.13;8.00;;;;;;;;;;5081819;28;20234;-49
2021/08/06 13:25:01;;;;;;;9.35;6.68;;;;;;;;;;5065282;28;20046;-50
2021/08/06 13:27:27;;;;;;;6.63;5.47;;;;;;;;;;5083268;28;20398;-48
2021/08/06 13:29:53;;;;;;;5.38;4.60;;;;;;;;;;5081719;28;20028;-51
2021/08/06 13:32:19;;;;;;;5.15;4.50;;;;;;;;;;5065728;28;20051;-51
2021/08/06 13:34:45;;;;;;;8.25;5.97;;;;;;;;;;5082954;28;20048;-46
2021/08/06 13:37:11;;;;;;;9.23;5.93;;;;;;;;;;5063473;28;20054;-48
2021/08/06 13:39:37;;;;;;;9.65;6.18;;;;;;;;;;5083665;28;20134;-48
2021/08/06 13:42:04;;;;;;;9.35;6.32;;;;;;;;;;5082139;28;20082;-47
2021/08/06 13:44:31;;;;;;;14.27;8.70;;;;;;;;;;5081530;28;20016;-47
2021/08/06 13:46:57;;;;;;;13.90;7.50;;;;;;;;;;5083340;28;20023;-48
2021/08/06 13:49:23;;;;;;;12.38;6.75;;;;;;;;;;5081841;28;20020;-50
2021/08/06 13:51:50;;;;;;;8.05;5.78;;;;;;;;;;5081738;28;20028;-50
2021/08/06 13:54:17;;;;;;;5.78;4.78;;;;;;;;;;5083511;28;20066;-47
2021/08/06 13:56:43;;;;;;;6.60;4.40;;;;;;;;;;5062926;28;20024;-52
2021/08/06 13:59:09;;;;;;;5.32;4.35;;;;;;;;;;5081609;28;20075;-50
2021/08/06 14:01:35;;;;;;;6.22;3.70;;;;;;;;;;5082984;28;20028;-49
2021/08/06 14:04:01;;;;;;;3.75;3.40;;;;;;;;;;5081628;28;20017;-47
2021/08/06 14:06:27;;;;;;;3.00;2.72;;;;;;;;;;5081698;28;20099;-48
2021/08/06 14:08:53;;;;;;;3.92;3.20;;;;;;;;;;5082892;28;20027;-47
2021/08/06 14:11:20;;;;;;;3.05;2.85;;;;;;;;;;5081018;28;20047;-48
2021/08/06 14:13:46;;;;;;;4.03;3.17;;;;;;;;;;5082741;28;20085;-49
2021/08/06 14:16:12;;;;;;;2.70;2.50;;;;;;;;;;5080549;28;20472;-49
2021/08/06 14:18:38;;;;;;;3.72;2.65;;;;;;;;;;5082527;28;20032;-49
2021/08/06 14:21:06;;;;;;;4.97;3.42;;;;;;;;;;5081727;28;20028;-47
2021/08/06 14:23:33;;;;;;;2.80;2.60;;;;;;;;;;5062681;28;20016;-47
2021/08/06 14:26:01;;;;;;;2.70;2.50;;;;;;;;;;5082299;28;20012;-46
2021/08/06 14:28:27;;;;;;;4.22;2.47;;;;;;;;;;5081943;28;20024;-51
2021/08/06 14:30:54;;;;;;;3.05;2.72;;;;;;;;;;5080668;28;20021;-50
2021/08/06 14:33:21;;;;;;;2.90;2.70;;;;;;;;;;5063143;28;20027;-46
2021/08/06 14:35:47;;;;;;;3.80;2.65;;;;;;;;;;5081777;28;20086;-49
2021/08/06 14:38:13;;;;;;;4.15;3.10;;;;;;;;;;5080092;28;20043;-48
2021/08/06 14:40:39;;;;;;;4.07;3.67;;;;;;;;;;5081927;28;20057;-49